Time;durP1;ratioP1;P1;durP2;ratioP2;P2;SDS_P1;SDS_P2;PMS_P1;PMS_P2;Temp;Humidity;BMP_temperature;BMP_pressure;BME280_temperature;BME280_humidity;BME280_pressure;Samples;Min_cycle;Max_cycle;Signal;HPM_P1;HPM_P2
2022/02/06 00:02:34;;;;;;;40.58;18.02;;;;;;;-0.87;72.08;97373.80;1690545;83;25816;-83
2022/02/06 00:04:57;;;;;;;36.45;14.35;;;;;;;-0.94;71.96;97374.00;1690171;84;27417;-82
2022/02/06 00:07:23;;;;;;;35.83;15.95;;;;;;;-1.00;72.11;97370.61;1690507;84;25510;-82
2022/02/06 00:09:50;;;;;;;32.63;14.70;;;;;;;-0.99;72.20;97369.63;1690636;84;26428;-82
2022/02/06 00:12:16;;;;;;;19.37;8.13;;;;;;;-1.02;72.24;97365.44;1690612;84;25735;-82
2022/02/06 00:14:43;;;;;;;16.02;8.45;;;;;;;-0.98;72.26;97354.08;1690599;84;25767;-82
2022/02/06 00:17:10;;;;;;;17.70;8.80;;;;;;;-0.91;72.41;97354.69;1690688;84;27365;-82
2022/02/06 00:19:43;;;;;;;15.38;8.28;;;;;;;-0.85;72.39;97354.63;1690481;83;25778;-81
2022/02/06 00:22:26;;;;;;;15.98;8.25;;;;;;;-0.82;72.34;97350.34;1690621;84;25780;-82
2022/02/06 00:24:56;;;;;;;15.90;7.45;;;;;;;-0.77;72.33;97349.44;1688324;84;26373;-82
2022/02/06 00:27:26;;;;;;;15.80;7.53;;;;;;;-0.68;72.36;97351.72;1688695;84;25763;-81
2022/02/06 00:30:02;;;;;;;14.98;7.65;;;;;;;-0.61;72.29;97348.37;1690360;84;28254;-82
2022/02/06 00:32:35;;;;;;;14.85;7.12;;;;;;;-0.54;72.19;97338.85;1689042;84;25712;-82
2022/02/06 00:35:18;;;;;;;12.63;6.65;;;;;;;-0.52;72.05;97332.09;1689139;84;25779;-82
2022/02/06 00:40:11;;;;;;;11.48;6.35;;;;;;;-0.46;71.96;97327.03;1690621;83;25763;-82
2022/02/06 00:42:37;;;;;;;13.10;6.45;;;;;;;-0.45;71.94;97323.39;1692278;84;27457;-81
2022/02/06 00:45:05;;;;;;;12.70;6.72;;;;;;;-0.47;71.86;97316.56;1693233;83;25341;-82
2022/02/06 00:47:31;;;;;;;14.33;7.70;;;;;;;-0.47;71.83;97318.72;1693262;83;26443;-82
2022/02/06 00:49:59;;;;;;;11.65;6.87;;;;;;;-0.52;71.78;97310.38;1693274;83;26570;-82
2022/02/06 00:52:33;;;;;;;15.45;7.45;;;;;;;-0.58;71.72;97315.41;1693202;84;25769;-82
2022/02/06 00:54:54;;;;;;;13.35;7.05;;;;;;;-0.64;71.74;97308.89;1692212;83;27402;-82
2022/02/06 00:57:20;;;;;;;14.20;7.55;;;;;;;-0.67;71.79;97317.13;1693219;84;25751;-82
2022/02/06 00:59:47;;;;;;;13.78;6.55;;;;;;;-0.64;71.79;97305.40;1693257;84;25759;-82
2022/02/06 01:02:13;;;;;;;15.90;7.15;;;;;;;-0.67;71.72;97299.89;1693170;84;25868;-82
2022/02/06 01:04:40;;;;;;;15.48;6.30;;;;;;;-0.64;71.75;97289.00;1693207;83;26555;-82
2022/02/06 01:07:06;;;;;;;12.03;6.42;;;;;;;-0.65;71.68;97282.52;1693254;84;27382;-82
2022/02/06 01:09:33;;;;;;;17.05;7.17;;;;;;;-0.70;71.60;97280.78;1693160;84;25718;-82
2022/02/06 01:12:00;;;;;;;14.38;7.10;;;;;;;-0.80;71.59;97279.00;1693132;84;25805;-82
2022/02/06 01:20:01;;;;;;;15.23;7.45;;;;;;;-0.91;71.76;97263.76;1693024;84;27527;-81
2022/02/06 01:22:24;;;;;;;14.98;7.87;;;;;;;-0.92;71.69;97263.41;1691845;84;25772;-81
2022/02/06 01:25:05;;;;;;;17.80;8.45;;;;;;;-0.97;71.68;97257.23;1693044;84;25766;-82
2022/02/06 01:27:23;;;;;;;18.42;8.80;;;;;;;-1.03;71.64;97254.30;1688705;84;25743;-81
2022/02/06 01:30:01;;;;;;;17.77;8.53;;;;;;;-1.11;71.59;97250.57;1692741;84;25742;-81
2022/02/06 01:32:32;;;;;;;18.12;8.00;;;;;;;-1.17;71.62;97253.77;1692561;84;27482;-81
2022/02/06 01:34:59;;;;;;;14.78;9.05;;;;;;;-1.22;71.64;97248.08;1691821;84;25859;-81
2022/02/06 01:37:31;;;;;;;19.12;8.05;;;;;;;-1.22;71.71;97236.66;1692359;84;25715;-81
2022/02/06 01:42:37;;;;;;;14.38;6.65;;;;;;;-1.14;71.81;97232.30;1690834;84;25960;-81
2022/02/06 02:01:16;;;;;;;10.90;5.45;;;;;;;-0.53;71.33;97209.77;1678379;85;25863;-82
2022/02/06 02:03:50;;;;;;;12.25;5.42;;;;;;;-0.47;71.23;97207.35;1696271;84;25786;-81
2022/02/06 02:06:50;;;;;;;14.05;6.53;;;;;;;-0.42;71.22;97199.80;1677338;85;25758;-81
2022/02/06 02:09:23;;;;;;;14.55;7.15;;;;;;;-0.38;71.17;97206.48;1696273;84;25746;-81
2022/02/06 02:12:21;;;;;;;12.53;6.45;;;;;;;-0.31;71.12;97196.11;1675765;85;28510;-81
2022/02/06 02:30:33;;;;;;;16.57;5.60;;;;;;;-0.20;70.51;97169.37;1696320;84;25687;-82
2022/02/06 02:46:09;;;;;;;14.38;5.47;;;;;;;-0.17;70.24;97147.02;1682125;85;25757;-82
2022/02/06 02:48:31;;;;;;;10.30;4.95;;;;;;;-0.15;70.23;97147.70;1680670;85;25667;-81
2022/02/06 02:51:03;;;;;;;10.05;5.22;;;;;;;-0.12;70.16;97139.45;1681940;85;26777;-81
2022/02/06 02:53:33;;;;;;;11.88;5.50;;;;;;;-0.09;70.11;97140.45;1681065;85;26535;-81
2022/02/06 03:01:14;;;;;;;8.98;4.35;;;;;;;0.00;69.97;97131.08;1681997;85;25738;-82
2022/02/06 03:03:37;;;;;;;10.80;4.33;;;;;;;0.05;69.91;97121.84;1680765;85;27474;-81
2022/02/06 03:06:06;;;;;;;11.75;4.00;;;;;;;0.08;69.88;97117.06;1681731;85;25760;-81
2022/02/06 03:08:35;;;;;;;10.75;4.12;;;;;;;0.13;69.79;97121.41;1681845;85;25729;-82
2022/02/06 03:11:07;;;;;;;14.90;5.42;;;;;;;0.16;69.72;97119.78;1703696;83;25800;-81
2022/02/06 03:18:45;;;;;;;12.33;5.40;;;;;;;0.26;69.56;97117.86;1710089;83;25822;-81
2022/02/06 03:21:10;;;;;;;15.88;6.00;;;;;;;0.30;69.49;97119.23;1708850;83;25782;-82
2022/02/06 03:23:39;;;;;;;11.48;5.72;;;;;;;0.34;69.45;97120.59;1709894;83;25813;-81
2022/02/06 03:26:03;;;;;;;15.43;6.37;;;;;;;0.39;69.36;97109.98;1709825;83;25723;-81
2022/02/06 03:28:30;;;;;;;13.32;5.78;;;;;;;0.43;69.28;97096.75;1710087;83;27642;-81
2022/02/06 03:30:57;;;;;;;12.25;4.97;;;;;;;0.46;69.24;97093.79;1710182;83;25755;-82
2022/02/06 03:33:23;;;;;;;13.00;5.65;;;;;;;0.50;69.19;97095.13;1710211;83;25703;-82
2022/02/06 03:35:50;;;;;;;10.60;4.50;;;;;;;0.54;69.12;97095.99;1710180;83;25747;-82
2022/02/06 03:38:16;;;;;;;10.60;4.58;;;;;;;0.55;69.02;97093.68;1710222;83;25787;-82
2022/02/06 03:40:52;;;;;;;12.88;5.05;;;;;;;0.58;69.00;97085.90;1710147;83;27417;-82
2022/02/06 03:43:20;;;;;;;8.70;4.30;;;;;;;0.60;68.88;97085.25;1692362;83;26069;-83
2022/02/06 03:45:48;;;;;;;7.15;2.90;;;;;;;0.62;68.86;97083.25;1680424;85;25707;-82
2022/02/06 03:48:20;;;;;;;7.47;3.72;;;;;;;0.64;68.76;97071.48;1680617;85;26368;-83
2022/02/06 03:50:49;;;;;;;6.37;3.70;;;;;;;0.66;68.73;97085.94;1680664;85;25679;-84
2022/02/06 03:53:12;;;;;;;8.78;3.98;;;;;;;0.68;68.68;97074.66;1680019;85;27560;-82
2022/02/06 03:55:39;;;;;;;7.25;3.27;;;;;;;0.69;68.67;97065.21;1680985;85;26004;-82
2022/02/06 03:58:06;;;;;;;5.53;2.75;;;;;;;0.71;68.65;97077.02;1681090;85;25823;-82
2022/02/06 04:00:32;;;;;;;6.40;3.10;;;;;;;0.73;68.63;97061.72;1681051;85;26451;-81
2022/02/06 04:02:59;;;;;;;5.47;2.90;;;;;;;0.76;68.56;97061.41;1681121;85;25748;-82
2022/02/06 04:05:25;;;;;;;6.53;2.92;;;;;;;0.79;68.48;97060.27;1681088;85;28220;-82
2022/02/06 04:07:52;;;;;;;5.90;2.60;;;;;;;0.82;68.51;97055.48;1690112;84;25893;-84
2022/02/06 04:10:19;;;;;;;5.05;2.70;;;;;;;0.83;68.48;97059.80;1695847;84;25763;-83
2022/02/06 04:12:48;;;;;;;5.95;2.72;;;;;;;0.84;68.44;97046.86;1695386;84;25740;-82
2022/02/06 04:15:23;;;;;;;10.60;3.40;;;;;;;0.87;68.38;97050.50;1695768;84;25838;-81
2022/02/06 04:17:47;;;;;;;6.12;3.08;;;;;;;0.89;68.34;97040.55;1694600;84;27470;-81
2022/02/06 04:20:11;;;;;;;4.58;2.80;;;;;;;0.91;68.29;97041.23;1695284;84;25816;-81
2022/02/06 04:22:38;;;;;;;9.95;2.80;;;;;;;0.91;68.27;97031.09;1695713;84;25788;-81
2022/02/06 04:25:05;;;;;;;5.85;2.25;;;;;;;0.93;68.26;97028.62;1695837;84;26569;-81
2022/02/06 04:27:32;;;;;;;7.22;2.77;;;;;;;0.96;68.24;97028.30;1695736;84;25750;-81
2022/02/06 04:29:58;;;;;;;7.28;3.52;;;;;;;0.97;68.29;97023.30;1695634;84;27458;-80
2022/02/06 04:32:27;;;;;;;7.95;2.87;;;;;;;1.00;68.24;97020.81;1695686;84;25726;-81
2022/02/06 04:34:55;;;;;;;6.28;2.50;;;;;;;1.02;68.22;97009.04;1695672;84;25718;-83
2022/02/06 05:10:55;;;;;;;5.12;2.27;;;;;;;1.18;67.94;96986.16;1691781;84;26561;-82
2022/02/06 05:11:20;;;;;;;6.53;2.47;;;;;;;1.19;67.76;96961.23;1691786;84;26339;-80
2022/02/06 05:32:17;;;;;;;11.33;4.65;;;;;;;1.27;67.30;96939.97;1691836;84;26067;-82
2022/02/06 05:34:28;;;;;;;9.75;4.08;;;;;;;1.27;67.30;96931.99;1688324;84;27487;-81
2022/02/06 05:36:54;;;;;;;10.93;4.80;;;;;;;1.28;67.29;96932.33;1691788;84;25726;-80
2022/02/06 05:39:21;;;;;;;12.85;4.95;;;;;;;1.29;67.21;96928.67;1691857;84;25745;-80
2022/02/06 05:41:48;;;;;;;12.35;5.50;;;;;;;1.31;67.26;96936.83;1691866;84;25750;-80
2022/02/06 05:44:14;;;;;;;10.25;4.40;;;;;;;1.31;67.14;96932.01;1702174;82;26477;-80
2022/02/06 05:46:41;;;;;;;11.43;4.62;;;;;;;1.28;67.14;96917.70;1706915;84;27404;-80
2022/02/06 05:49:10;;;;;;;8.90;4.67;;;;;;;1.30;67.18;96940.48;1706895;84;26220;-82
2022/02/06 05:51:38;;;;;;;5.37;3.40;;;;;;;1.30;67.24;96919.70;1706408;84;25991;-80
2022/02/06 05:54:06;;;;;;;6.55;2.87;;;;;;;1.31;67.21;96920.04;1706160;84;25909;-79
2022/02/06 05:56:34;;;;;;;7.35;3.05;;;;;;;1.30;67.25;96912.56;1706116;84;25757;-83
2022/02/06 05:59:00;;;;;;;13.60;4.65;;;;;;;1.28;67.23;96925.19;1706241;84;27502;-80
2022/02/06 06:01:27;;;;;;;11.50;3.98;;;;;;;1.29;67.25;96915.38;1706135;84;25328;-80
2022/02/06 06:03:54;;;;;;;10.08;4.50;;;;;;;1.29;67.30;96908.73;1706184;84;25773;-80
2022/02/06 06:06:21;;;;;;;8.95;3.83;;;;;;;1.28;67.28;96907.06;1706030;84;25753;-81
2022/02/06 06:08:47;;;;;;;11.50;4.53;;;;;;;1.28;67.32;96897.77;1706102;84;25727;-81
2022/02/06 06:11:14;;;;;;;12.53;5.20;;;;;;;1.28;67.34;96904.41;1706232;84;27362;-80
2022/02/06 06:13:40;;;;;;;10.18;4.50;;;;;;;1.27;67.34;96890.28;1706089;84;26284;-80
2022/02/06 06:16:08;;;;;;;11.05;4.78;;;;;;;1.28;67.38;96903.91;1706279;83;26400;-80
2022/02/06 06:18:36;;;;;;;5.42;2.92;;;;;;;1.28;67.39;96900.42;1706894;84;25772;-80
2022/02/06 06:21:04;;;;;;;8.00;3.70;;;;;;;1.27;67.38;96894.77;1706973;84;25681;-82
2022/02/06 06:23:30;;;;;;;8.45;3.58;;;;;;;1.28;67.39;96900.42;1706910;84;28276;-80
2022/02/06 06:25:57;;;;;;;7.90;3.75;;;;;;;1.26;67.44;96895.77;1706511;84;26389;-80
2022/02/06 06:28:24;;;;;;;6.97;3.02;;;;;;;1.24;67.41;96895.92;1707037;84;25764;-80
2022/02/06 06:30:50;;;;;;;9.85;3.67;;;;;;;1.25;67.48;96887.45;1707031;84;25724;-80
2022/02/06 06:33:17;;;;;;;7.30;3.40;;;;;;;1.26;67.51;96890.45;1706987;84;25772;-81
2022/02/06 06:35:45;;;;;;;6.60;3.30;;;;;;;1.27;67.50;96885.46;1706641;84;27447;-80
2022/02/06 06:38:12;;;;;;;7.95;4.55;;;;;;;1.27;67.53;96890.28;1706709;84;26533;-80
2022/02/06 06:40:39;;;;;;;8.50;3.90;;;;;;;1.28;67.59;96882.64;1706685;84;25701;-80
2022/02/06 06:43:06;;;;;;;12.55;4.58;;;;;;;1.31;67.61;96884.14;1705574;84;25798;-80
2022/02/06 06:45:33;;;;;;;8.18;3.85;;;;;;;1.33;67.63;96875.47;1693101;84;25776;-80
2022/02/06 06:47:59;;;;;;;9.88;5.33;;;;;;;1.36;67.72;96877.81;1692391;84;27409;-80
2022/02/06 06:50:32;;;;;;;6.28;4.72;;;;;;;1.41;67.76;96883.47;1681049;85;25750;-80
2022/02/06 06:52:55;;;;;;;13.35;5.42;;;;;;;1.42;67.77;96866.02;1680533;85;25727;-80
2022/02/06 06:55:22;;;;;;;10.13;5.20;;;;;;;1.42;67.76;96866.02;1681136;85;26562;-81
2022/02/06 06:58:05;;;;;;;11.38;5.83;;;;;;;1.44;67.75;96861.37;1681131;85;25830;-79
2022/02/06 07:00:36;;;;;;;11.50;4.92;;;;;;;1.46;67.83;96859.84;1678172;85;27602;-80
2022/02/06 07:02:51;;;;;;;14.23;5.50;;;;;;;1.49;67.97;96854.20;1678736;84;25870;-80
2022/02/06 07:05:18;;;;;;;15.75;7.85;;;;;;;1.57;67.99;96847.52;1681273;85;25708;-80
2022/02/06 07:07:45;;;;;;;17.50;9.13;;;;;;;1.59;67.90;96847.36;1681129;84;25676;-80
2022/02/06 07:10:11;;;;;;;20.12;10.80;;;;;;;1.61;67.83;96837.39;1682753;84;25768;-80
2022/02/06 07:12:38;;;;;;;8.85;4.80;;;;;;;1.65;67.82;96844.04;1692988;84;28178;-80
2022/02/06 07:15:05;;;;;;;11.45;6.83;;;;;;;1.66;67.81;96849.69;1692936;84;25845;-79
2022/02/06 07:17:32;;;;;;;10.48;5.83;;;;;;;1.69;67.87;96840.85;1693176;84;25690;-80
2022/02/06 07:19:58;;;;;;;10.53;4.65;;;;;;;1.69;67.82;96844.84;1693126;84;25860;-80
2022/02/06 07:22:25;;;;;;;9.95;4.42;;;;;;;1.71;67.79;96842.84;1693404;84;25655;-80
2022/02/06 07:24:53;;;;;;;10.13;4.42;;;;;;;1.70;67.76;96835.86;1693237;84;27538;-79
2022/02/06 07:27:27;;;;;;;10.03;4.78;;;;;;;1.72;67.77;96835.20;1688070;84;26115;-79
2022/02/06 07:29:51;;;;;;;13.50;6.12;;;;;;;1.75;67.72;96830.87;1680746;85;25762;-80
2022/02/06 07:32:19;;;;;;;17.80;7.92;;;;;;;1.81;67.75;96829.38;1680792;85;26322;-80
2022/02/06 07:34:46;;;;;;;19.57;8.45;;;;;;;1.84;67.65;96829.02;1681082;85;26404;-80
2022/02/06 07:37:12;;;;;;;14.93;7.15;;;;;;;1.84;67.59;96822.36;1681115;84;28311;-80
2022/02/06 07:39:40;;;;;;;16.80;7.62;;;;;;;1.86;67.52;96815.53;1680947;85;25842;-80
2022/02/06 07:42:09;;;;;;;13.25;6.47;;;;;;;1.86;67.48;96815.53;1681060;85;25735;-80
2022/02/06 07:44:37;;;;;;;12.23;6.58;;;;;;;1.85;67.49;96804.06;1695388;84;25787;-80
2022/02/06 07:47:14;;;;;;;16.02;8.63;;;;;;;1.84;67.44;96798.91;1706584;84;25715;-80
2022/02/06 07:49:42;;;;;;;18.87;9.88;;;;;;;1.85;67.41;96801.90;1701551;83;27620;-80
2022/02/06 07:52:09;;;;;;;12.18;6.03;;;;;;;1.86;67.37;96794.25;1690481;84;25861;-80
2022/02/06 07:54:35;;;;;;;10.28;5.62;;;;;;;1.86;67.40;96795.08;1690517;84;25806;-80
2022/02/06 07:57:04;;;;;;;17.05;6.70;;;;;;;1.92;67.35;96793.58;1690529;84;25759;-81
2022/02/06 07:59:32;;;;;;;14.38;6.53;;;;;;;1.98;67.35;96790.20;1690650;84;25782;-80
2022/02/06 08:01:59;;;;;;;13.10;6.08;;;;;;;2.02;67.22;96787.54;1690450;84;27383;-81
2022/02/06 08:04:25;;;;;;;15.13;6.90;;;;;;;2.05;67.19;96789.86;1690407;83;25788;-81
2022/02/06 08:06:52;;;;;;;8.63;4.92;;;;;;;2.08;67.09;96782.84;1690517;84;25860;-81
2022/02/06 08:09:25;;;;;;;13.00;6.75;;;;;;;2.09;66.97;96778.67;1690275;84;25832;-81
2022/02/06 08:11:48;;;;;;;14.53;7.60;;;;;;;2.12;67.02;96776.17;1689546;84;25706;-81
2022/02/06 08:14:49;;;;;;;12.60;6.40;;;;;;;2.19;67.00;96775.79;1690476;84;27355;-81
2022/02/06 08:16:42;;;;;;;13.78;6.47;;;;;;;2.25;66.94;96756.47;1690023;84;25765;-81
2022/02/06 08:19:09;;;;;;;9.73;5.10;;;;;;;2.32;66.88;96771.23;1690557;83;25499;-84
2022/02/06 08:21:36;;;;;;;10.60;4.58;;;;;;;2.34;66.81;96780.71;1690358;84;25794;-82
2022/02/06 08:24:02;;;;;;;11.08;5.65;;;;;;;2.38;66.70;96756.72;1690648;84;25266;-81
2022/02/06 08:26:29;;;;;;;12.60;6.25;;;;;;;2.40;66.67;96760.05;1690624;84;27398;-80
2022/02/06 08:29:00;;;;;;;10.75;4.97;;;;;;;2.41;66.61;96756.38;1690534;84;25797;-81
2022/02/06 08:31:24;;;;;;;11.00;6.08;;;;;;;2.44;66.36;96763.16;1689758;84;26289;-80
2022/02/06 08:33:51;;;;;;;9.18;5.42;;;;;;;2.45;66.40;96751.50;1690542;84;26364;-82
2022/02/06 08:36:17;;;;;;;8.20;4.90;;;;;;;2.48;66.49;96765.81;1690331;84;25734;-81
2022/02/06 08:38:44;;;;;;;7.60;4.28;;;;;;;2.54;66.44;96749.11;1690457;84;27481;-81
2022/02/06 08:41:10;;;;;;;9.88;4.72;;;;;;;2.61;66.44;96753.23;1690410;84;25778;-81
2022/02/06 08:43:37;;;;;;;15.40;5.20;;;;;;;2.65;66.36;96753.22;1690403;84;25833;-81
2022/02/06 08:46:04;;;;;;;10.65;5.28;;;;;;;2.70;66.35;96750.83;1693610;84;25765;-81
2022/02/06 08:48:30;;;;;;;12.58;7.00;;;;;;;2.79;66.41;96747.09;1693532;84;25777;-82
2022/02/06 08:50:57;;;;;;;7.33;4.58;;;;;;;2.86;66.34;96750.72;1693658;84;28261;-80
2022/02/06 08:53:23;;;;;;;12.58;5.00;;;;;;;2.93;66.26;96742.81;1693531;84;25865;-81
2022/02/06 08:55:50;;;;;;;7.97;4.10;;;;;;;2.97;66.12;96739.63;1693683;84;25791;-81
2022/02/06 08:58:17;;;;;;;9.40;4.92;;;;;;;3.00;66.03;96741.94;1693710;84;25844;-81
2022/02/06 09:00:43;;;;;;;10.20;4.42;;;;;;;3.04;66.07;96748.55;1693724;84;26121;-81
2022/02/06 09:03:10;;;;;;;10.78;4.45;;;;;;;3.09;66.00;96740.84;1693706;84;27377;-88
2022/02/06 09:05:37;;;;;;;5.53;3.50;;;;;;;3.11;65.93;96757.50;1693675;84;25810;-81
2022/02/06 09:08:05;;;;;;;8.63;3.85;;;;;;;3.15;65.83;96744.11;1693637;84;25786;-80
2022/02/06 09:10:32;;;;;;;10.53;4.08;;;;;;;3.13;65.63;96752.82;1693532;84;25774;-80
2022/02/06 09:12:59;;;;;;;6.83;3.35;;;;;;;3.18;65.76;96754.42;1693638;84;25807;-81
2022/02/06 09:15:26;;;;;;;8.03;4.00;;;;;;;3.23;65.43;96757.39;1693690;84;28339;-82
2022/02/06 09:17:53;;;;;;;8.43;4.50;;;;;;;3.21;65.42;96747.40;1693629;84;25759;-82
2022/02/06 09:20:20;;;;;;;12.65;6.12;;;;;;;3.19;65.32;96745.41;1693741;84;25772;-82
2022/02/06 09:22:46;;;;;;;8.03;4.67;;;;;;;3.21;65.34;96747.40;1693704;84;25692;-81
2022/02/06 09:25:14;;;;;;;9.53;5.33;;;;;;;3.23;65.31;96754.72;1693788;84;25751;-80
2022/02/06 09:27:43;;;;;;;10.80;3.95;;;;;;;3.29;65.25;96750.98;1693660;84;27436;-81
2022/02/06 09:30:15;;;;;;;9.20;3.42;;;;;;;3.35;65.13;96744.94;1693371;84;25750;-83
2022/02/06 09:35:10;;;;;;;9.70;4.30;;;;;;;3.46;65.05;96753.32;1692536;84;26560;-81
2022/02/06 09:37:37;;;;;;;8.60;3.85;;;;;;;3.52;64.90;96741.90;1692537;84;25795;-82
2022/02/06 09:40:09;;;;;;;8.23;4.87;;;;;;;3.55;64.70;96736.20;1692691;84;27368;-82
2022/02/06 09:42:35;;;;;;;10.78;5.50;;;;;;;3.60;64.55;96733.00;1689676;84;25826;-83
2022/02/06 09:45:02;;;;;;;8.55;3.45;;;;;;;3.62;64.44;96726.44;1700692;83;25797;-83
2022/02/06 09:47:31;;;;;;;11.12;3.60;;;;;;;3.66;64.36;96720.73;1714234;83;25735;-83
2022/02/06 09:50:00;;;;;;;7.40;3.42;;;;;;;3.66;64.00;96707.39;1714250;83;25780;-82
2022/02/06 09:52:29;;;;;;;10.38;3.85;;;;;;;3.88;64.21;96694.43;1714405;83;27584;-82
2022/02/06 09:55:02;;;;;;;8.95;4.08;;;;;;;4.26;64.13;96686.55;1714481;82;25774;-83
2022/02/06 09:57:30;;;;;;;7.95;3.60;;;;;;;4.66;63.90;96683.78;1714191;82;25793;-82
2022/02/06 09:59:58;;;;;;;5.35;2.90;;;;;;;4.99;63.59;96665.33;1680471;85;26510;-85
2022/02/06 10:02:30;;;;;;;6.12;3.37;;;;;;;5.23;62.34;96682.78;1680594;85;26391;-83
2022/02/06 10:04:58;;;;;;;8.93;3.90;;;;;;;5.36;62.10;96680.70;1680816;85;27625;-83
2022/02/06 10:07:38;;;;;;;6.55;3.00;;;;;;;5.43;61.22;96669.00;1680619;85;25901;-81
2022/02/06 10:10:07;;;;;;;6.17;3.02;;;;;;;5.43;60.33;96642.23;1680201;85;26616;-86
2022/02/06 10:12:38;;;;;;;8.75;3.45;;;;;;;5.53;60.35;96678.55;1680625;85;26481;-82
2022/02/06 10:15:19;;;;;;;7.47;3.35;;;;;;;5.56;59.58;96650.03;1680657;85;25825;-82
2022/02/06 10:17:47;;;;;;;8.18;2.87;;;;;;;5.62;59.11;96638.54;1680735;85;28618;-84
2022/02/06 10:20:32;;;;;;;7.35;2.70;;;;;;;5.62;58.84;96631.84;1680580;85;25316;-83
2022/02/06 10:22:58;;;;;;;6.95;3.00;;;;;;;5.61;58.69;96638.22;1679794;85;25763;-83
2022/02/06 10:25:23;;;;;;;6.55;3.02;;;;;;;5.67;58.84;96641.46;1680118;85;26465;-82
2022/02/06 10:30:48;;;;;;;5.73;2.97;;;;;;;5.74;58.62;96638.28;1651178;85;27480;-86
2022/02/06 10:33:24;;;;;;;8.75;3.40;;;;;;;5.85;58.73;96635.03;1680097;85;25802;-82
2022/02/06 10:35:54;;;;;;;7.67;3.25;;;;;;;6.10;58.87;96624.13;1651852;85;25862;-82
2022/02/06 10:38:27;;;;;;;9.45;4.92;;;;;;;6.40;58.50;96607.16;1680264;85;25831;-85
2022/02/06 10:41:08;;;;;;;6.03;3.80;;;;;;;6.57;59.58;96616.98;1680284;85;25794;-86
2022/02/06 10:43:38;;;;;;;8.73;4.03;;;;;;;6.90;59.43;96610.27;1680092;85;28288;-84
2022/02/06 10:46:11;;;;;;;7.42;3.10;;;;;;;6.91;58.62;96606.55;1698866;84;25746;-82
2022/02/06 10:48:51;;;;;;;6.50;2.98;;;;;;;6.80;57.96;96605.33;1705889;84;25772;-83
2022/02/06 10:51:44;;;;;;;5.60;3.15;;;;;;;6.74;57.90;96604.00;1706230;83;25805;-82
2022/02/06 10:54:22;;;;;;;7.45;3.42;;;;;;;6.67;57.89;96589.75;1706061;84;25719;-84
2022/02/06 10:57:11;;;;;;;7.60;3.40;;;;;;;6.66;57.90;96585.41;1706035;84;27417;-83
2022/02/06 10:59:53;;;;;;;10.45;3.60;;;;;;;6.68;58.03;96604.30;1705969;84;25778;-89
2022/02/06 11:02:46;;;;;;;10.68;5.10;;;;;;;6.61;57.47;96582.03;1724149;82;25749;-87
2022/02/06 11:05:30;;;;;;;12.37;4.90;;;;;;;6.34;57.13;96583.86;1722677;83;25770;-83
2022/02/06 11:07:57;;;;;;;12.63;5.90;;;;;;;6.13;57.54;96579.52;1721886;83;25899;-83
2022/02/06 11:10:27;;;;;;;14.90;6.80;;;;;;;6.07;57.54;96582.16;1723535;82;28196;-82
2022/02/06 11:13:02;;;;;;;26.73;10.50;;;;;;;5.93;57.74;96579.96;1723992;83;25774;-82
2022/02/06 11:15:41;;;;;;;14.58;6.08;;;;;;;5.90;58.00;96571.02;1724008;83;25690;-81
2022/02/06 11:18:14;;;;;;;18.42;8.30;;;;;;;5.79;57.82;96558.19;1723788;83;25851;-83
2022/02/06 11:21:07;;;;;;;16.57;7.60;;;;;;;5.71;58.02;96550.31;1723859;82;25303;-82
2022/02/06 11:23:47;;;;;;;11.10;6.00;;;;;;;5.62;58.18;96539.48;1724276;82;27505;-86
2022/02/06 11:26:26;;;;;;;12.23;5.53;;;;;;;5.51;58.11;96540.06;1723967;82;25758;-83
2022/02/06 11:28:57;;;;;;;10.03;4.87;;;;;;;5.34;58.04;96528.36;1722471;83;25734;-82
2022/02/06 11:31:24;;;;;;;8.38;4.95;;;;;;;5.31;58.33;96527.41;1724048;83;26511;-81
2022/02/06 11:33:51;;;;;;;11.85;5.30;;;;;;;5.26;58.48;96516.50;1724004;82;25757;-82
2022/02/06 11:42:57;;;;;;;11.25;5.97;;;;;;;5.21;58.61;96510.91;1724033;82;28273;-81
2022/02/06 11:45:18;;;;;;;18.75;9.05;;;;;;;5.41;58.99;96513.17;1723937;83;26356;-82
2022/02/06 11:47:49;;;;;;;21.47;11.00;;;;;;;5.62;58.96;96514.05;1727259;83;25816;-83
2022/02/06 11:50:17;;;;;;;9.28;5.22;;;;;;;5.86;59.08;96508.13;1727588;82;27491;-80
2022/02/06 11:53:08;;;;;;;13.35;5.83;;;;;;;5.99;58.85;96496.64;1727009;83;26003;-82
2022/02/06 11:55:51;;;;;;;24.00;11.53;;;;;;;5.87;58.50;96510.30;1700538;84;26252;-80
2022/02/06 11:58:32;;;;;;;20.23;11.40;;;;;;;5.69;58.42;96504.16;1699076;84;26699;-81
2022/02/06 12:01:14;;;;;;;17.75;8.38;;;;;;;5.68;58.65;96489.95;1700822;84;25714;-81
2022/02/06 12:04:27;;;;;;;12.20;5.72;;;;;;;5.84;58.85;96499.47;1720011;83;27649;-84
2022/02/06 12:06:57;;;;;;;5.67;2.92;;;;;;;6.13;58.99;96507.17;1697191;84;25798;-81
2022/02/06 12:09:29;;;;;;;8.85;4.55;;;;;;;6.41;58.35;96493.54;1697526;84;25726;-82
2022/02/06 12:12:14;;;;;;;16.30;6.50;;;;;;;6.49;58.48;96493.34;1697694;84;25692;-81
2022/02/06 12:14:48;;;;;;;12.50;4.72;;;;;;;6.60;58.38;96472.29;1697529;84;25750;-81
2022/02/06 12:20:13;;;;;;;11.80;6.37;;;;;;;6.82;58.36;96479.05;1697381;84;25770;-82
2022/02/06 12:22:46;;;;;;;6.50;3.67;;;;;;;7.04;58.18;96469.69;1698267;82;25839;-81
2022/02/06 12:25:34;;;;;;;14.95;6.70;;;;;;;7.34;58.20;96470.52;1721165;81;25823;-82
2022/02/06 12:28:21;;;;;;;8.18;3.90;;;;;;;7.55;57.75;96464.30;1700373;84;25769;-83
2022/02/06 12:30:57;;;;;;;7.22;3.30;;;;;;;7.89;57.73;96464.91;1700785;84;28391;-83
2022/02/06 12:33:38;;;;;;;9.83;4.58;;;;;;;8.32;57.63;96468.25;1700669;84;25734;-81
2022/02/06 12:38:44;;;;;;;10.65;4.80;;;;;;;8.63;56.57;96460.09;1700386;84;25833;-82
2022/02/06 12:41:23;;;;;;;10.70;4.87;;;;;;;8.68;56.39;96445.47;1700720;84;25786;-82
2022/02/06 12:43:54;;;;;;;7.90;4.95;;;;;;;8.56;55.87;96455.31;1698762;83;27379;-84
2022/02/06 12:46:26;;;;;;;8.08;4.25;;;;;;;8.47;56.08;96451.23;1683392;82;25827;-84
2022/02/06 12:49:03;;;;;;;8.45;4.35;;;;;;;8.20;55.57;96452.81;1668588;84;25733;-83
2022/02/06 12:51:35;;;;;;;7.12;4.00;;;;;;;8.07;55.85;96448.87;1696323;83;25783;-83
2022/02/06 12:54:11;;;;;;;9.10;5.05;;;;;;;8.05;55.85;96436.17;1688269;83;25731;-82
2022/02/06 12:56:40;;;;;;;11.85;5.17;;;;;;;8.08;55.92;96450.53;1685300;84;27417;-82
2022/02/06 12:59:09;;;;;;;7.80;4.42;;;;;;;8.15;55.85;96437.02;1693065;83;26087;-82
2022/02/06 13:01:42;;;;;;;9.58;4.92;;;;;;;8.16;55.91;96424.70;1693121;83;25513;-82
2022/02/06 13:04:14;;;;;;;8.33;4.22;;;;;;;8.08;55.62;96435.75;1693126;84;26573;-83
2022/02/06 13:06:44;;;;;;;10.43;5.45;;;;;;;8.00;55.73;96433.83;1692742;84;26277;-83
2022/02/06 13:09:28;;;;;;;7.90;3.45;;;;;;;7.82;55.31;96418.47;1693123;84;25931;-82
2022/02/06 13:20:09;;;;;;;5.83;3.20;;;;;;;6.65;56.15;96410.27;1693283;83;25858;-83
2022/02/06 13:30:49;;;;;;;6.90;3.47;;;;;;;6.01;57.50;96404.84;1623255;88;26474;-83
2022/02/06 13:33:11;;;;;;;7.00;3.37;;;;;;;6.05;57.72;96389.47;1621120;88;25834;-82
2022/02/06 13:35:47;;;;;;;6.80;3.33;;;;;;;6.09;57.95;96389.89;1622260;86;27435;-82
2022/02/06 13:38:16;;;;;;;9.48;3.98;;;;;;;6.22;58.25;96384.52;1621929;86;25940;-81
2022/02/06 13:40:48;;;;;;;4.72;3.12;;;;;;;6.33;58.28;96382.53;1617394;87;26314;-81
2022/02/06 13:43:17;;;;;;;9.33;4.62;;;;;;;6.39;58.14;96368.81;1618193;86;26464;-82
2022/02/06 13:45:42;;;;;;;10.03;4.53;;;;;;;6.43;58.29;96384.77;1621448;85;26112;-83
2022/02/06 13:48:11;;;;;;;6.05;3.25;;;;;;;6.30;58.22;96383.45;1638005;87;27428;-81
2022/02/06 13:50:45;;;;;;;5.85;3.55;;;;;;;6.15;58.18;96364.95;1682808;85;26326;-81
2022/02/06 13:53:19;;;;;;;;;;;;;;;5.94;58.22;96361.97;1685338;85;25817;-81
2022/02/06 13:55:52;;;;;;;7.40;3.67;;;;;;;5.78;58.51;96369.08;1682900;85;26494;-81
2022/02/06 13:58:24;;;;;;;7.47;4.20;;;;;;;5.63;58.70;96360.42;1682746;85;25332;-81
2022/02/06 14:01:04;;;;;;;5.25;3.45;;;;;;;5.56;59.02;96352.37;1694422;84;27382;-82
2022/02/06 14:03:49;;;;;;;10.82;5.35;;;;;;;5.44;59.01;96349.48;1716583;82;25855;-83
2022/02/06 14:06:20;;;;;;;6.90;3.67;;;;;;;5.30;59.24;96343.83;1716765;82;25885;-81
2022/02/06 14:09:07;;;;;;;13.60;6.80;;;;;;;5.19;59.46;96332.39;1716731;83;25693;-82
2022/02/06 14:11:31;;;;;;;11.90;4.42;;;;;;;5.05;59.49;96332.06;1715501;82;25780;-82
2022/02/06 14:14:19;;;;;;;9.45;4.45;;;;;;;4.89;59.79;96332.42;1716496;82;28423;-82
2022/02/06 14:16:51;;;;;;;7.33;3.70;;;;;;;4.79;60.07;96330.65;1716601;82;26554;-81
2022/02/06 14:19:45;;;;;;;4.83;3.30;;;;;;;4.75;60.49;96322.71;1692205;83;25714;-81
2022/02/06 14:22:14;;;;;;;6.72;3.77;;;;;;;4.71;60.67;96319.09;1700733;82;25910;-81